메인 페이지
METAR-TAF:

METAR-TAF

공항 :

바커우, 루마니아

위도: 46-35N, 경도: 026-58E, 고도: 184m

현재 날씨관측

예보는 35분 전, 08:30시(UTC)에 발표되었습니다.
7kt남동풍과 서남서풍을 오가는
온도 22°C
습도 43%
기압 1006 hPa
시정 10km 이상
고도 5500ft 상공 구름 조금

METAR: LRBC 040830Z 19007KT 130V240 9999 FEW055 22/09 Q1006

시각: 12:05 (09:05 UTC)

예보

예보는 1 시간 5분 전, 08:00시(UTC)에 발표되었습니다.
예보 대상 시간: 04일 09시부터 04일 18시까지 (UTC)
10kt
시정 10km 이상
1500m 미만 상공 구름 및 적란운 없음
확률 40% :
일시적
04일 09시부터 04일 15시까지 (UTC)
고도 4000ft 상공 구름 보통, 적란운.

TAF: LRBC 040800Z 0409/0418 18010KT CAVOK PROB40 TEMPO 0409/0415 SCT040CB

4,000개 이상의 공항 관측 자료 및 예보 (METAR 및 TAF 보고).

지도상에서 검색 가능한 기상관측소가 노란 점과 빨간 점으로 표시되어 있습니다.

기상관측소 명을 보려면 표시 위로 마우스를 이동하세요.

날씨 관측과 예보를 보려면 클릭하세요.

지도 변경 : 확대하려면 엑스 표시가 있는 녹색 버튼, 축소하려면 빼기 표시가 있는 녹색 버튼, 다음 페이지의 지도를 보려면 녹색 화살표를 클릭하세요.


METAR-TAF: